sensor_id;sensor_type;location;lat;lon;timestamp;pressure;altitude;pressure_sealevel;temperature;humidity
32330;BME280;18807;52.434;13.238;2023-02-28T00:00:56;102741.56;;;0.83;100.00
32330;BME280;18807;52.434;13.238;2023-02-28T00:08:32;102747.84;;;0.85;100.00
32330;BME280;18807;52.434;13.238;2023-02-28T00:16:08;102744.44;;;0.86;100.00
32330;BME280;18807;52.434;13.238;2023-02-28T00:23:44;102741.94;;;0.87;100.00
32330;BME280;18807;52.434;13.238;2023-02-28T00:31:18;102743.50;;;0.85;100.00
32330;BME280;18807;52.434;13.238;2023-02-28T00:38:54;102742.97;;;0.89;100.00
32330;BME280;18807;52.434;13.238;2023-02-28T00:46:28;102747.47;;;0.90;100.00
32330;BME280;18807;52.434;13.238;2023-02-28T00:54:04;102744.97;;;0.92;100.00
32330;BME280;18807;52.434;13.238;2023-02-28T01:01:38;102744.56;;;0.97;100.00
32330;BME280;18807;52.434;13.238;2023-02-28T01:09:13;102743.00;;;0.99;100.00
32330;BME280;18807;52.434;13.238;2023-02-28T01:16:48;102746.50;;;1.00;100.00
32330;BME280;18807;52.434;13.238;2023-02-28T01:24:23;102742.44;;;1.03;100.00
32330;BME280;18807;52.434;13.238;2023-02-28T01:31:57;102734.28;;;1.00;100.00
32330;BME280;18807;52.434;13.238;2023-02-28T01:39:33;102727.34;;;1.01;100.00
32330;BME280;18807;52.434;13.238;2023-02-28T01:47:07;102728.09;;;1.00;100.00
32330;BME280;18807;52.434;13.238;2023-02-28T01:54:46;102731.28;;;0.96;100.00
32330;BME280;18807;52.434;13.238;2023-02-28T02:02:23;102727.19;;;0.89;100.00
32330;BME280;18807;52.434;13.238;2023-02-28T02:10:06;102739.44;;;0.89;100.00
32330;BME280;18807;52.434;13.238;2023-02-28T02:17:44;102728.28;;;0.81;100.00
32330;BME280;18807;52.434;13.238;2023-02-28T02:25:26;102732.47;;;0.79;100.00
32330;BME280;18807;52.434;13.238;2023-02-28T02:41:39;102733.56;;;0.71;100.00
32330;BME280;18807;52.434;13.238;2023-02-28T02:49:18;102737.63;;;0.68;100.00
32330;BME280;18807;52.434;13.238;2023-02-28T02:56:58;102726.56;;;0.62;100.00
32330;BME280;18807;52.434;13.238;2023-02-28T03:04:38;102723.44;;;0.46;100.00
32330;BME280;18807;52.434;13.238;2023-02-28T03:12:15;102726.28;;;0.39;100.00
32330;BME280;18807;52.434;13.238;2023-02-28T03:19:56;102734.31;;;0.30;100.00
32330;BME280;18807;52.434;13.238;2023-02-28T03:27:58;102738.00;;;0.22;100.00
32330;BME280;18807;52.434;13.238;2023-02-28T03:35:52;102749.53;;;0.14;100.00
32330;BME280;18807;52.434;13.238;2023-02-28T03:43:34;102747.28;;;0.09;100.00
32330;BME280;18807;52.434;13.238;2023-02-28T03:51:15;102750.28;;;0.03;100.00
32330;BME280;18807;52.434;13.238;2023-02-28T03:58:57;102755.00;;;-0.03;100.00
32330;BME280;18807;52.434;13.238;2023-02-28T04:06:33;102749.84;;;-0.12;100.00
32330;BME280;18807;52.434;13.238;2023-02-28T04:14:10;102747.47;;;-0.19;100.00
32330;BME280;18807;52.434;13.238;2023-02-28T04:21:46;102758.56;;;-0.31;100.00
32330;BME280;18807;52.434;13.238;2023-02-28T04:29:24;102754.34;;;-0.39;100.00
32330;BME280;18807;52.434;13.238;2023-02-28T04:36:58;102763.63;;;-0.43;100.00
32330;BME280;18807;52.434;13.238;2023-02-28T04:44:50;102763.09;;;-0.49;100.00
32330;BME280;18807;52.434;13.238;2023-02-28T04:52:24;102762.66;;;-0.53;100.00
32330;BME280;18807;52.434;13.238;2023-02-28T04:59:59;102780.63;;;-0.58;100.00
32330;BME280;18807;52.434;13.238;2023-02-28T05:07:33;102773.13;;;-0.63;100.00
32330;BME280;18807;52.434;13.238;2023-02-28T05:15:09;102772.84;;;-0.66;100.00
32330;BME280;18807;52.434;13.238;2023-02-28T05:22:46;102787.06;;;-0.73;100.00
32330;BME280;18807;52.434;13.238;2023-02-28T05:30:22;102789.94;;;-0.80;100.00
32330;BME280;18807;52.434;13.238;2023-02-28T05:37:56;102784.53;;;-0.81;100.00
32330;BME280;18807;52.434;13.238;2023-02-28T05:45:31;102791.69;;;-0.89;100.00
32330;BME280;18807;52.434;13.238;2023-02-28T05:53:05;102797.88;;;-0.88;100.00
32330;BME280;18807;52.434;13.238;2023-02-28T06:00:41;102805.97;;;-0.95;100.00
32330;BME280;18807;52.434;13.238;2023-02-28T06:08:14;102808.16;;;-1.00;100.00
32330;BME280;18807;52.434;13.238;2023-02-28T06:15:50;102810.50;;;-1.03;100.00
32330;BME280;18807;52.434;13.238;2023-02-28T06:23:24;102808.50;;;-1.05;100.00
32330;BME280;18807;52.434;13.238;2023-02-28T06:30:59;102819.91;;;-1.05;100.00
32330;BME280;18807;52.434;13.238;2023-02-28T06:38:33;102827.41;;;-0.99;100.00
32330;BME280;18807;52.434;13.238;2023-02-28T06:46:12;102838.19;;;-0.96;100.00
32330;BME280;18807;52.434;13.238;2023-02-28T06:53:47;102841.09;;;-0.93;100.00
32330;BME280;18807;52.434;13.238;2023-02-28T07:01:22;102848.34;;;-0.91;100.00
32330;BME280;18807;52.434;13.238;2023-02-28T07:08:57;102846.31;;;-0.85;100.00
32330;BME280;18807;52.434;13.238;2023-02-28T07:16:32;102857.66;;;-0.76;100.00
32330;BME280;18807;52.434;13.238;2023-02-28T07:24:07;102852.63;;;-0.64;100.00
32330;BME280;18807;52.434;13.238;2023-02-28T07:31:42;102851.13;;;-0.52;100.00
32330;BME280;18807;52.434;13.238;2023-02-28T07:39:16;102855.41;;;-0.34;100.00
32330;BME280;18807;52.434;13.238;2023-02-28T07:46:52;102851.22;;;-0.14;100.00
32330;BME280;18807;52.434;13.238;2023-02-28T07:54:26;102856.09;;;0.21;100.00
32330;BME280;18807;52.434;13.238;2023-02-28T08:02:02;102855.25;;;0.60;100.00
32330;BME280;18807;52.434;13.238;2023-02-28T08:09:54;102854.50;;;1.01;100.00
32330;BME280;18807;52.434;13.238;2023-02-28T08:17:29;102854.19;;;1.48;99.00
32330;BME280;18807;52.434;13.238;2023-02-28T08:25:07;102847.50;;;2.25;90.91
32330;BME280;18807;52.434;13.238;2023-02-28T08:32:43;102858.66;;;3.30;73.97
32330;BME280;18807;52.434;13.238;2023-02-28T08:40:17;102854.88;;;4.19;62.31
32330;BME280;18807;52.434;13.238;2023-02-28T08:47:53;102865.31;;;5.26;53.41
32330;BME280;18807;52.434;13.238;2023-02-28T08:55:27;102865.38;;;5.52;52.59
32330;BME280;18807;52.434;13.238;2023-02-28T09:03:03;102852.22;;;5.91;50.73
32330;BME280;18807;52.434;13.238;2023-02-28T09:10:37;102852.81;;;6.13;46.73
32330;BME280;18807;52.434;13.238;2023-02-28T09:18:12;102859.53;;;6.34;48.85
32330;BME280;18807;52.434;13.238;2023-02-28T09:25:48;102865.56;;;6.45;45.01
32330;BME280;18807;52.434;13.238;2023-02-28T09:33:24;102858.00;;;6.78;47.82
32330;BME280;18807;52.434;13.238;2023-02-28T09:41:00;102849.88;;;6.62;46.92
32330;BME280;18807;52.434;13.238;2023-02-28T09:48:39;102845.41;;;6.89;45.67
32330;BME280;18807;52.434;13.238;2023-02-28T09:56:19;102857.84;;;6.62;46.52
32330;BME280;18807;52.434;13.238;2023-02-28T10:04:04;102856.16;;;6.50;47.25
32330;BME280;18807;52.434;13.238;2023-02-28T10:11:42;102856.75;;;6.59;47.17
32330;BME280;18807;52.434;13.238;2023-02-28T10:19:23;102869.38;;;6.09;46.53
32330;BME280;18807;52.434;13.238;2023-02-28T10:27:01;102861.69;;;5.87;46.73
32330;BME280;18807;52.434;13.238;2023-02-28T10:34:39;102863.69;;;5.65;48.51
32330;BME280;18807;52.434;13.238;2023-02-28T10:42:23;102862.44;;;5.47;46.78
32330;BME280;18807;52.434;13.238;2023-02-28T10:50:00;102858.63;;;5.31;46.85
32330;BME280;18807;52.434;13.238;2023-02-28T10:57:52;102848.47;;;5.12;47.87
32330;BME280;18807;52.434;13.238;2023-02-28T11:05:29;102845.00;;;4.89;49.36
32330;BME280;18807;52.434;13.238;2023-02-28T11:13:04;102843.56;;;5.05;48.13
32330;BME280;18807;52.434;13.238;2023-02-28T11:20:40;102833.50;;;4.88;47.55
32330;BME280;18807;52.434;13.238;2023-02-28T11:28:26;102811.47;;;5.01;48.56
32330;BME280;18807;52.434;13.238;2023-02-28T11:36:07;102808.56;;;5.22;48.57
32330;BME280;18807;52.434;13.238;2023-02-28T11:43:54;102809.06;;;5.17;47.39
32330;BME280;18807;52.434;13.238;2023-02-28T11:51:34;102817.81;;;4.91;48.39
32330;BME280;18807;52.434;13.238;2023-02-28T11:59:24;102805.97;;;4.73;48.88
32330;BME280;18807;52.434;13.238;2023-02-28T12:07:09;102804.59;;;5.16;48.24
32330;BME280;18807;52.434;13.238;2023-02-28T12:23:25;102799.91;;;5.25;47.30
32330;BME280;18807;52.434;13.238;2023-02-28T12:31:05;102800.91;;;5.14;48.03
32330;BME280;18807;52.434;13.238;2023-02-28T12:38:45;102783.41;;;5.16;47.62
32330;BME280;18807;52.434;13.238;2023-02-28T12:46:23;102774.50;;;5.02;48.92
32330;BME280;18807;52.434;13.238;2023-02-28T12:54:07;102761.53;;;5.44;46.99
32330;BME280;18807;52.434;13.238;2023-02-28T13:09:54;102729.50;;;5.28;46.99
32330;BME280;18807;52.434;13.238;2023-02-28T13:17:29;102720.13;;;5.33;47.98
32330;BME280;18807;52.434;13.238;2023-02-28T13:33:29;102716.75;;;5.36;46.95
32330;BME280;18807;52.434;13.238;2023-02-28T13:41:47;102714.94;;;5.35;47.80
32330;BME280;18807;52.434;13.238;2023-02-28T13:49:25;102707.50;;;5.42;48.84
32330;BME280;18807;52.434;13.238;2023-02-28T13:57:10;102694.13;;;5.54;48.17
32330;BME280;18807;52.434;13.238;2023-02-28T14:05:06;102689.25;;;5.60;47.64
32330;BME280;18807;52.434;13.238;2023-02-28T14:12:54;102688.63;;;5.64;47.58
32330;BME280;18807;52.434;13.238;2023-02-28T14:20:31;102686.41;;;5.44;48.59
32330;BME280;18807;52.434;13.238;2023-02-28T14:28:14;102687.41;;;5.33;48.87
32330;BME280;18807;52.434;13.238;2023-02-28T14:36:04;102685.16;;;5.39;48.61
32330;BME280;18807;52.434;13.238;2023-02-28T14:43:48;102681.81;;;5.28;48.36
32330;BME280;18807;52.434;13.238;2023-02-28T14:51:23;102686.00;;;5.38;47.35
32330;BME280;18807;52.434;13.238;2023-02-28T14:58:59;102672.13;;;5.42;45.93
32330;BME280;18807;52.434;13.238;2023-02-28T15:06:33;102682.50;;;5.52;46.17
32330;BME280;18807;52.434;13.238;2023-02-28T15:14:15;102668.88;;;5.33;47.59
32330;BME280;18807;52.434;13.238;2023-02-28T15:21:55;102671.34;;;5.43;47.06
32330;BME280;18807;52.434;13.238;2023-02-28T15:29:41;102664.59;;;5.35;47.53
32330;BME280;18807;52.434;13.238;2023-02-28T15:37:36;102662.16;;;5.38;47.34
32330;BME280;18807;52.434;13.238;2023-02-28T15:45:30;102658.16;;;5.31;46.38
32330;BME280;18807;52.434;13.238;2023-02-28T15:53:12;102658.59;;;5.24;46.93
32330;BME280;18807;52.434;13.238;2023-02-28T16:01:00;102657.88;;;5.14;48.87
32330;BME280;18807;52.434;13.238;2023-02-28T16:08:34;102662.13;;;4.99;49.46
32330;BME280;18807;52.434;13.238;2023-02-28T16:16:15;102672.59;;;4.84;50.17
32330;BME280;18807;52.434;13.238;2023-02-28T16:23:49;102679.19;;;4.78;49.73
32330;BME280;18807;52.434;13.238;2023-02-28T16:31:24;102683.56;;;4.64;50.23
32330;BME280;18807;52.434;13.238;2023-02-28T16:39:00;102682.72;;;4.52;51.64
32330;BME280;18807;52.434;13.238;2023-02-28T16:46:36;102684.19;;;4.36;52.45
32330;BME280;18807;52.434;13.238;2023-02-28T16:54:10;102685.03;;;4.23;54.20
32330;BME280;18807;52.434;13.238;2023-02-28T17:01:45;102682.13;;;4.07;56.70
32330;BME280;18807;52.434;13.238;2023-02-28T17:09:21;102691.63;;;3.80;57.58
32330;BME280;18807;52.434;13.238;2023-02-28T17:17:18;102683.06;;;3.60;59.92
32330;BME280;18807;52.434;13.238;2023-02-28T17:24:53;102687.91;;;3.42;61.94
32330;BME280;18807;52.434;13.238;2023-02-28T17:32:31;102692.53;;;3.22;62.10
32330;BME280;18807;52.434;13.238;2023-02-28T17:40:06;102698.94;;;3.02;63.15
32330;BME280;18807;52.434;13.238;2023-02-28T17:47:43;102701.53;;;2.79;64.32
32330;BME280;18807;52.434;13.238;2023-02-28T17:55:19;102705.06;;;2.57;65.26
32330;BME280;18807;52.434;13.238;2023-02-28T18:02:54;102707.16;;;2.39;66.85
32330;BME280;18807;52.434;13.238;2023-02-28T18:10:28;102702.16;;;2.21;68.60
32330;BME280;18807;52.434;13.238;2023-02-28T18:18:06;102704.88;;;2.11;70.94
32330;BME280;18807;52.434;13.238;2023-02-28T18:25:41;102695.44;;;2.02;72.41
32330;BME280;18807;52.434;13.238;2023-02-28T18:33:34;102716.47;;;1.91;73.55
32330;BME280;18807;52.434;13.238;2023-02-28T18:41:08;102721.69;;;1.69;74.29
32330;BME280;18807;52.434;13.238;2023-02-28T18:48:44;102719.59;;;1.44;75.26
32330;BME280;18807;52.434;13.238;2023-02-28T18:56:19;102730.38;;;1.37;77.05
32330;BME280;18807;52.434;13.238;2023-02-28T19:04:14;102738.09;;;1.14;78.76
32330;BME280;18807;52.434;13.238;2023-02-28T19:11:48;102730.59;;;0.98;80.23
32330;BME280;18807;52.434;13.238;2023-02-28T19:19:24;102728.38;;;0.93;80.91
32330;BME280;18807;52.434;13.238;2023-02-28T19:26:57;102724.56;;;0.89;81.77
32330;BME280;18807;52.434;13.238;2023-02-28T19:34:33;102730.13;;;0.72;82.73
32330;BME280;18807;52.434;13.238;2023-02-28T19:42:08;102741.16;;;0.58;83.56
32330;BME280;18807;52.434;13.238;2023-02-28T19:49:43;102741.28;;;0.60;84.70
32330;BME280;18807;52.434;13.238;2023-02-28T19:57:17;102747.88;;;0.55;84.59
32330;BME280;18807;52.434;13.238;2023-02-28T20:04:52;102743.00;;;0.49;86.39
32330;BME280;18807;52.434;13.238;2023-02-28T20:12:32;102730.25;;;0.44;87.66
32330;BME280;18807;52.434;13.238;2023-02-28T20:20:09;102743.00;;;0.39;87.38
32330;BME280;18807;52.434;13.238;2023-02-28T20:27:43;102733.69;;;0.33;86.77
32330;BME280;18807;52.434;13.238;2023-02-28T20:35:19;102745.59;;;0.19;86.53
32330;BME280;18807;52.434;13.238;2023-02-28T20:42:55;102732.81;;;0.03;86.48
32330;BME280;18807;52.434;13.238;2023-02-28T20:50:30;102720.75;;;-0.05;86.80
32330;BME280;18807;52.434;13.238;2023-02-28T20:58:04;102708.63;;;-0.13;87.80
32330;BME280;18807;52.434;13.238;2023-02-28T21:05:39;102703.25;;;-0.14;89.69
32330;BME280;18807;52.434;13.238;2023-02-28T21:13:30;102707.28;;;-0.18;90.69
32330;BME280;18807;52.434;13.238;2023-02-28T21:21:07;102706.53;;;-0.17;89.83
32330;BME280;18807;52.434;13.238;2023-02-28T21:28:42;102708.97;;;-0.28;90.13
32330;BME280;18807;52.434;13.238;2023-02-28T21:36:20;102715.53;;;-0.33;91.31
32330;BME280;18807;52.434;13.238;2023-02-28T21:43:55;102717.88;;;-0.36;91.95
32330;BME280;18807;52.434;13.238;2023-02-28T21:51:30;102714.31;;;-0.37;92.50
32330;BME280;18807;52.434;13.238;2023-02-28T21:59:04;102721.50;;;-0.44;93.96
32330;BME280;18807;52.434;13.238;2023-02-28T22:06:43;102722.31;;;-0.45;94.00
32330;BME280;18807;52.434;13.238;2023-02-28T22:14:18;102734.34;;;-0.47;94.16
32330;BME280;18807;52.434;13.238;2023-02-28T22:21:53;102738.63;;;-0.58;94.68
32330;BME280;18807;52.434;13.238;2023-02-28T22:29:27;102733.25;;;-0.59;95.13
32330;BME280;18807;52.434;13.238;2023-02-28T22:37:02;102733.75;;;-0.63;95.82
32330;BME280;18807;52.434;13.238;2023-02-28T22:44:36;102740.41;;;-0.67;95.40
32330;BME280;18807;52.434;13.238;2023-02-28T22:52:11;102740.50;;;-0.75;95.67
32330;BME280;18807;52.434;13.238;2023-02-28T22:59:45;102742.56;;;-0.81;97.36
32330;BME280;18807;52.434;13.238;2023-02-28T23:07:21;102750.16;;;-0.84;97.39
32330;BME280;18807;52.434;13.238;2023-02-28T23:14:55;102761.44;;;-0.85;97.10
32330;BME280;18807;52.434;13.238;2023-02-28T23:22:30;102766.13;;;-0.91;97.81
32330;BME280;18807;52.434;13.238;2023-02-28T23:30:06;102769.41;;;-0.94;98.09
32330;BME280;18807;52.434;13.238;2023-02-28T23:37:42;102768.84;;;-1.00;98.42
32330;BME280;18807;52.434;13.238;2023-02-28T23:45:16;102768.97;;;-0.98;98.30
32330;BME280;18807;52.434;13.238;2023-02-28T23:52:52;102762.38;;;-1.03;97.78
